Main page
METAR-TAF:

METAR-TAF

Airports :

Pyongyang Sunan International Airport

Pyongyang, North Korea

latitude: 39-02N, longitude: 125-47E, elevation: 36 m

METAR: missing

Time: 07:59 (23:29 UTC)

Forecast

The report was made 19 hours and 19 minutes ago, at 04:10 UTC
Forecast valid from 21 at 06 UTC to 22 at 06 UTC
Wind 10 kt from the Northwest
Visibility 10 km or more
no clouds below 1500 m and no cumulonimbus
Becoming
from 21 at 10 UTC to 21 at 12 UTC
Wind 6 kt from the West

TAF: ZKPY 210410Z 2106/2206 32005MPS CAVOK TX03/2106Z TNM09/2121Z BECMG 2110/2112 26003MPS

Weather observations and forecasts of more than 4000 airports (METAR and TAF reports).

The available stations are represented by yellow and red dots on the map.

Hover mouse over dot to see the name of the station.

Then click to see weather observations and forecasts.

To change the map : click on the green buttons with a black cross to zoom in, on the green button with a dash to zoom out, or on the green arrows for adjacent maps.


METAR-TAF: